Time;durP1;ratioP1;P1;durP2;ratioP2;P2;SDS_P1;SDS_P2;PMS_P1;PMS_P2;Temp;Humidity;BMP_temperature;BMP_pressure;BME280_temperature;BME280_humidity;BME280_pressure;Samples;Min_cycle;Max_cycle;Signal;HPM_P1;HPM_P2
2022/01/17 00:00:30;;;;;;;151.88;80.05;;;;;;;;;;5065974;28;20039;-58
2022/01/17 00:02:59;;;;;;;104.80;56.55;;;;;;;;;;5064509;28;20492;-55
2022/01/17 00:05:25;;;;;;;97.03;54.60;;;;;;;;;;5064354;28;20028;-53
2022/01/17 00:07:54;;;;;;;144.63;74.03;;;;;;;;;;5064239;28;20136;-49
2022/01/17 00:10:20;;;;;;;129.45;64.53;;;;;;;;;;5064078;28;20023;-49
2022/01/17 00:12:48;;;;;;;121.80;61.88;;;;;;;;;;5064448;28;20024;-52
2022/01/17 00:15:24;;;;;;;139.23;66.50;;;;;;;;;;5065282;28;20028;-49
2022/01/17 00:17:58;;;;;;;137.75;67.15;;;;;;;;;;5063836;28;20033;-56
2022/01/17 00:20:27;;;;;;;145.70;73.22;;;;;;;;;;5064523;28;20025;-50
2022/01/17 00:22:54;;;;;;;143.55;71.40;;;;;;;;;;5064296;28;20028;-49
2022/01/17 00:25:20;;;;;;;121.18;61.20;;;;;;;;;;5063764;28;20095;-48
2022/01/17 00:27:48;;;;;;;114.63;54.65;;;;;;;;;;5063426;28;20068;-58
2022/01/17 00:30:14;;;;;;;126.93;62.47;;;;;;;;;;5064466;28;20029;-50
2022/01/17 00:32:40;;;;;;;122.00;58.70;;;;;;;;;;5063794;28;20322;-49
2022/01/17 00:35:06;;;;;;;113.75;57.72;;;;;;;;;;5063954;28;20040;-51
2022/01/17 00:37:33;;;;;;;121.35;60.30;;;;;;;;;;5066298;28;20071;-54
2022/01/17 00:39:59;;;;;;;118.75;57.55;;;;;;;;;;5094638;28;20020;-54
2022/01/17 00:42:25;;;;;;;112.25;56.17;;;;;;;;;;5094475;28;20020;-52
2022/01/17 00:44:51;;;;;;;128.25;59.33;;;;;;;;;;5093037;28;20444;-58
2022/01/17 00:47:17;;;;;;;106.05;52.90;;;;;;;;;;5094648;28;20490;-59
2022/01/17 00:49:43;;;;;;;106.45;52.20;;;;;;;;;;5094420;28;20063;-51
2022/01/17 00:52:09;;;;;;;119.53;58.10;;;;;;;;;;5094428;28;20024;-55
2022/01/17 00:54:36;;;;;;;119.18;54.88;;;;;;;;;;5094319;28;20020;-51
2022/01/17 00:57:02;;;;;;;104.10;48.45;;;;;;;;;;5093849;28;20412;-49
2022/01/17 00:59:29;;;;;;;98.35;51.22;;;;;;;;;;5093694;28;20485;-53
2022/01/17 01:01:55;;;;;;;101.90;49.17;;;;;;;;;;5094220;28;20417;-49
2022/01/17 01:04:21;;;;;;;107.25;53.40;;;;;;;;;;5094163;28;20157;-50
2022/01/17 01:06:47;;;;;;;94.82;48.92;;;;;;;;;;5094127;28;20020;-49
2022/01/17 01:09:13;;;;;;;101.65;48.45;;;;;;;;;;5094145;28;20492;-49
2022/01/17 01:11:39;;;;;;;101.63;51.63;;;;;;;;;;5094010;28;20035;-49
2022/01/17 01:14:05;;;;;;;116.85;57.28;;;;;;;;;;5093781;28;20051;-58
2022/01/17 01:16:34;;;;;;;100.35;51.50;;;;;;;;;;5094050;28;20032;-52
2022/01/17 01:29:48;;;;;;;87.03;44.88;;;;;;;;;;5093489;28;20124;-56
2022/01/17 01:32:19;;;;;;;;;;;;;;;;;;5094223;28;20107;-55
2022/01/17 01:34:46;;;;;;;97.43;49.05;;;;;;;;;;5093640;28;19904;-49
2022/01/17 01:37:12;;;;;;;92.65;49.60;;;;;;;;;;5093424;28;20028;-48
2022/01/17 01:39:39;;;;;;;98.22;44.72;;;;;;;;;;5093649;28;20016;-48
2022/01/17 01:42:13;;;;;;;78.70;44.25;;;;;;;;;;5093765;28;20016;-56
2022/01/17 01:44:41;;;;;;;75.82;42.65;;;;;;;;;;5093518;28;20027;-48
2022/01/17 01:47:08;;;;;;;72.82;41.47;;;;;;;;;;5092150;28;20464;-49
2022/01/17 01:49:34;;;;;;;72.00;39.85;;;;;;;;;;5093264;28;20016;-57
2022/01/17 01:52:00;;;;;;;78.38;44.20;;;;;;;;;;5093651;28;20031;-57
2022/01/17 01:54:26;;;;;;;66.82;38.90;;;;;;;;;;5093621;28;20397;-56
2022/01/17 01:56:52;;;;;;;85.22;40.80;;;;;;;;;;5093348;28;20040;-57
2022/01/17 01:59:22;;;;;;;78.05;43.25;;;;;;;;;;5093443;28;20039;-48
2022/01/17 02:01:52;;;;;;;89.28;50.53;;;;;;;;;;5093301;28;20119;-48
2022/01/17 02:04:18;;;;;;;90.13;50.22;;;;;;;;;;5093352;28;20099;-49
2022/01/17 02:06:44;;;;;;;82.65;45.45;;;;;;;;;;5093273;28;20024;-52
2022/01/17 02:09:10;;;;;;;87.78;48.03;;;;;;;;;;5093117;28;20104;-52
2022/01/17 02:11:37;;;;;;;88.88;47.65;;;;;;;;;;5096631;28;20025;-54
2022/01/17 02:14:03;;;;;;;91.60;48.60;;;;;;;;;;5097428;28;20026;-55
2022/01/17 02:16:32;;;;;;;88.95;48.72;;;;;;;;;;5097373;28;20028;-53
2022/01/17 02:18:58;;;;;;;92.07;50.97;;;;;;;;;;5097224;28;20039;-49
2022/01/17 02:21:33;;;;;;;86.68;46.20;;;;;;;;;;5097440;28;20343;-57
2022/01/17 02:24:00;;;;;;;81.00;46.05;;;;;;;;;;5097331;28;20020;-56
2022/01/17 02:26:27;;;;;;;74.35;42.30;;;;;;;;;;5097073;28;20016;-56
2022/01/17 02:28:53;;;;;;;76.00;42.20;;;;;;;;;;5096988;28;20379;-49
2022/01/17 02:31:20;;;;;;;68.90;39.13;;;;;;;;;;5097240;28;20020;-50
2022/01/17 02:33:46;;;;;;;73.90;40.67;;;;;;;;;;5096943;28;20020;-58
2022/01/17 02:36:15;;;;;;;86.00;43.28;;;;;;;;;;5097011;28;20028;-50
2022/01/17 02:38:41;;;;;;;83.45;44.47;;;;;;;;;;5096767;28;20490;-52
2022/01/17 02:41:08;;;;;;;107.57;46.38;;;;;;;;;;5096961;28;20035;-51
2022/01/17 02:43:35;;;;;;;95.03;44.28;;;;;;;;;;5096993;28;20027;-56
2022/01/17 02:48:28;;;;;;;90.22;47.00;;;;;;;;;;5096684;28;20064;-58
2022/01/17 02:50:54;;;;;;;80.18;43.63;;;;;;;;;;5096943;28;20020;-50
2022/01/17 02:53:20;;;;;;;85.72;46.35;;;;;;;;;;5096669;28;20390;-48
2022/01/17 02:55:46;;;;;;;82.07;42.90;;;;;;;;;;5096642;28;20028;-49
2022/01/17 02:58:13;;;;;;;92.35;46.45;;;;;;;;;;5096398;28;20040;-54
2022/01/17 03:00:39;;;;;;;87.05;44.65;;;;;;;;;;5096660;28;20054;-52
2022/01/17 03:03:09;;;;;;;84.80;43.97;;;;;;;;;;5096608;28;20389;-57
2022/01/17 03:05:35;;;;;;;93.82;47.17;;;;;;;;;;5096477;28;20028;-49
2022/01/17 03:08:03;;;;;;;92.68;47.38;;;;;;;;;;5096529;28;20020;-50
2022/01/17 03:13:06;;;;;;;91.90;47.15;;;;;;;;;;5096294;28;20028;-55
2022/01/17 03:15:33;;;;;;;92.85;48.20;;;;;;;;;;5096215;28;20012;-60
2022/01/17 03:17:59;;;;;;;92.60;49.75;;;;;;;;;;5096221;28;20090;-50
2022/01/17 03:20:25;;;;;;;88.15;45.72;;;;;;;;;;5096210;28;20493;-52
2022/01/17 03:22:51;;;;;;;97.75;51.67;;;;;;;;;;5095818;28;20107;-57
2022/01/17 03:25:17;;;;;;;94.85;50.35;;;;;;;;;;5096207;28;20439;-57
2022/01/17 03:27:46;;;;;;;89.28;51.53;;;;;;;;;;5095726;28;20020;-49
2022/01/17 03:30:12;;;;;;;102.10;55.38;;;;;;;;;;5095930;28;20027;-54
2022/01/17 03:32:40;;;;;;;96.30;53.72;;;;;;;;;;5095942;28;20035;-50
2022/01/17 03:35:06;;;;;;;85.80;48.28;;;;;;;;;;5095921;28;20016;-55
2022/01/17 03:37:32;;;;;;;82.60;50.08;;;;;;;;;;5096014;28;20028;-59
2022/01/17 03:39:58;;;;;;;89.68;50.95;;;;;;;;;;5095830;28;20043;-55
2022/01/17 03:42:25;;;;;;;92.55;52.30;;;;;;;;;;5095683;28;20073;-55
2022/01/17 03:44:51;;;;;;;86.47;48.83;;;;;;;;;;5095549;28;20035;-57
2022/01/17 03:47:17;;;;;;;81.13;45.42;;;;;;;;;;5095616;28;20095;-54
2022/01/17 03:49:43;;;;;;;89.32;46.67;;;;;;;;;;5095890;28;20027;-55
2022/01/17 03:52:09;;;;;;;87.68;47.95;;;;;;;;;;5095787;28;20022;-51
2022/01/17 03:54:36;;;;;;;76.10;43.80;;;;;;;;;;5095577;28;20103;-52
2022/01/17 03:57:02;;;;;;;78.20;44.28;;;;;;;;;;5095406;28;20031;-49
2022/01/17 03:59:31;;;;;;;80.97;44.70;;;;;;;;;;5095329;28;20043;-58
2022/01/17 04:01:57;;;;;;;89.18;48.15;;;;;;;;;;5095268;28;20048;-57
2022/01/17 04:04:23;;;;;;;89.10;48.67;;;;;;;;;;5095402;28;20020;-57
2022/01/17 04:06:49;;;;;;;91.30;49.83;;;;;;;;;;5095371;28;20465;-56
2022/01/17 04:09:15;;;;;;;104.90;54.33;;;;;;;;;;5095401;28;20056;-51
2022/01/17 04:11:42;;;;;;;94.72;50.70;;;;;;;;;;5095337;28;20032;-48
2022/01/17 04:14:16;;;;;;;96.72;51.10;;;;;;;;;;5095209;28;20021;-48
2022/01/17 04:16:42;;;;;;;101.28;53.53;;;;;;;;;;5094888;28;20560;-57
2022/01/17 04:19:10;;;;;;;94.50;48.83;;;;;;;;;;5094808;28;20043;-49
2022/01/17 04:21:36;;;;;;;93.28;49.08;;;;;;;;;;5094853;28;20030;-49
2022/01/17 04:24:02;;;;;;;87.40;46.42;;;;;;;;;;5095234;28;20051;-59
2022/01/17 04:26:29;;;;;;;89.00;49.28;;;;;;;;;;5094947;28;20107;-48
2022/01/17 04:28:55;;;;;;;86.80;47.65;;;;;;;;;;5094596;28;20071;-56
2022/01/17 04:31:21;;;;;;;92.82;49.35;;;;;;;;;;5094694;28;20048;-49
2022/01/17 04:33:47;;;;;;;86.80;47.45;;;;;;;;;;5094016;28;20031;-53
2022/01/17 04:36:13;;;;;;;85.38;46.75;;;;;;;;;;5094923;28;20016;-58
2022/01/17 04:38:39;;;;;;;96.93;50.85;;;;;;;;;;5094594;28;20111;-52
2022/01/17 04:41:13;;;;;;;92.97;50.05;;;;;;;;;;5094560;28;20035;-57
2022/01/17 04:46:06;;;;;;;119.32;63.55;;;;;;;;;;5094328;28;20024;-66
2022/01/17 04:48:33;;;;;;;82.70;45.58;;;;;;;;;;5094493;28;20104;-67
2022/01/17 04:50:59;;;;;;;87.05;48.80;;;;;;;;;;5094275;28;20022;-67
2022/01/17 04:53:29;;;;;;;99.45;53.15;;;;;;;;;;5094290;28;20143;-67
2022/01/17 04:55:55;;;;;;;83.38;47.40;;;;;;;;;;5094268;28;20024;-64
2022/01/17 04:58:21;;;;;;;93.15;50.58;;;;;;;;;;5094179;28;20036;-69
2022/01/17 05:00:48;;;;;;;99.35;54.25;;;;;;;;;;5094009;28;20031;-67
2022/01/17 05:03:15;;;;;;;97.13;53.88;;;;;;;;;;5094237;28;20020;-55
2022/01/17 05:05:41;;;;;;;115.40;60.75;;;;;;;;;;5094095;28;20024;-67
2022/01/17 05:08:07;;;;;;;94.53;51.22;;;;;;;;;;5094008;28;20032;-61
2022/01/17 05:10:33;;;;;;;108.75;59.28;;;;;;;;;;5094111;28;20509;-66
2022/01/17 05:12:59;;;;;;;100.53;54.42;;;;;;;;;;5093945;28;20035;-67
2022/01/17 05:15:33;;;;;;;96.78;54.13;;;;;;;;;;5092469;28;20377;-62
2022/01/17 05:18:13;;;;;;;113.82;59.55;;;;;;;;;;5093801;28;20032;-64
2022/01/17 05:20:39;;;;;;;102.07;55.45;;;;;;;;;;5094037;28;20047;-67
2022/01/17 05:23:06;;;;;;;109.00;58.10;;;;;;;;;;5093994;28;20503;-67
2022/01/17 05:25:32;;;;;;;128.15;66.95;;;;;;;;;;5093852;28;20489;-66
2022/01/17 05:27:58;;;;;;;113.63;60.05;;;;;;;;;;5093563;28;20056;-69
2022/01/17 05:30:25;;;;;;;101.32;56.33;;;;;;;;;;5093639;28;20028;-68
2022/01/17 05:32:52;;;;;;;127.13;67.63;;;;;;;;;;5093759;28;20023;-66
2022/01/17 05:35:22;;;;;;;110.75;58.30;;;;;;;;;;5093913;28;20032;-66
2022/01/17 05:37:48;;;;;;;96.63;51.05;;;;;;;;;;5093729;28;20111;-67
2022/01/17 05:40:16;;;;;;;103.97;57.03;;;;;;;;;;5093663;28;20028;-69
2022/01/17 05:42:42;;;;;;;102.97;53.00;;;;;;;;;;5094015;28;20020;-70
2022/01/17 05:45:09;;;;;;;99.40;52.22;;;;;;;;;;5093413;28;20038;-71
2022/01/17 05:47:35;;;;;;;103.88;57.17;;;;;;;;;;5093669;28;20039;-66
2022/01/17 05:50:03;;;;;;;94.63;53.65;;;;;;;;;;5093697;28;20028;-65
2022/01/17 05:52:32;;;;;;;100.80;54.95;;;;;;;;;;5093353;28;20028;-66
2022/01/17 05:54:59;;;;;;;100.57;53.78;;;;;;;;;;5093524;28;20111;-65
2022/01/17 05:57:25;;;;;;;107.05;57.60;;;;;;;;;;5093626;28;20401;-64
2022/01/17 05:59:51;;;;;;;110.35;61.65;;;;;;;;;;5093181;28;20036;-63
2022/01/17 06:02:17;;;;;;;99.90;55.83;;;;;;;;;;5093544;28;20132;-65
2022/01/17 06:04:43;;;;;;;105.80;57.00;;;;;;;;;;5093543;28;20389;-64
2022/01/17 06:07:09;;;;;;;106.72;58.53;;;;;;;;;;5093409;28;20024;-65
2022/01/17 06:09:36;;;;;;;139.48;75.82;;;;;;;;;;5093272;28;20128;-70
2022/01/17 06:12:02;;;;;;;151.88;78.78;;;;;;;;;;5093299;28;20020;-65
2022/01/17 06:14:29;;;;;;;205.32;99.10;;;;;;;;;;5092068;28;20050;-65
2022/01/17 06:16:55;;;;;;;205.73;98.43;;;;;;;;;;5091787;28;20032;-66
2022/01/17 06:19:21;;;;;;;136.20;73.80;;;;;;;;;;5093199;28;20032;-67
2022/01/17 06:21:48;;;;;;;121.85;68.78;;;;;;;;;;5093195;28;20027;-66
2022/01/17 06:24:14;;;;;;;119.47;65.68;;;;;;;;;;5093170;28;20036;-68
2022/01/17 06:26:41;;;;;;;110.45;61.45;;;;;;;;;;5093188;28;20021;-68
2022/01/17 06:29:08;;;;;;;109.88;61.80;;;;;;;;;;5092965;28;20060;-70
2022/01/17 06:31:35;;;;;;;109.25;61.97;;;;;;;;;;5093068;28;20095;-69
2022/01/17 06:34:01;;;;;;;111.88;62.58;;;;;;;;;;5093256;28;20024;-66
2022/01/17 06:36:30;;;;;;;112.97;61.00;;;;;;;;;;5093124;28;20061;-72
2022/01/17 06:38:56;;;;;;;112.82;63.17;;;;;;;;;;5093083;28;20031;-75
2022/01/17 06:41:22;;;;;;;116.45;63.25;;;;;;;;;;5092956;28;20017;-70
2022/01/17 06:43:49;;;;;;;104.68;57.72;;;;;;;;;;5092925;28;20381;-56
2022/01/17 06:46:15;;;;;;;102.47;57.42;;;;;;;;;;5093128;28;20031;-54
2022/01/17 06:48:42;;;;;;;103.40;58.42;;;;;;;;;;5093240;28;20031;-53
2022/01/17 06:51:10;;;;;;;103.63;57.40;;;;;;;;;;5093157;28;20024;-55
2022/01/17 06:53:36;;;;;;;102.90;57.85;;;;;;;;;;5092828;28;20107;-55
2022/01/17 06:56:03;;;;;;;100.55;59.97;;;;;;;;;;5093347;28;20013;-55
2022/01/17 06:58:29;;;;;;;95.15;57.33;;;;;;;;;;5096481;28;20093;-70
2022/01/17 07:00:55;;;;;;;99.28;56.05;;;;;;;;;;5096826;28;20059;-74
2022/01/17 07:03:22;;;;;;;96.68;55.15;;;;;;;;;;5096759;28;20054;-74
2022/01/17 07:05:48;;;;;;;101.30;59.83;;;;;;;;;;5096522;28;20024;-73
2022/01/17 07:08:14;;;;;;;111.65;66.55;;;;;;;;;;5096555;28;20473;-72
2022/01/17 07:10:40;;;;;;;109.03;63.70;;;;;;;;;;5096490;28;20056;-68
2022/01/17 07:13:06;;;;;;;100.90;57.70;;;;;;;;;;5096500;28;20024;-69
2022/01/17 07:15:32;;;;;;;97.75;55.17;;;;;;;;;;5096370;28;20028;-55
2022/01/17 07:17:59;;;;;;;95.38;56.17;;;;;;;;;;5096361;28;20052;-57
2022/01/17 07:20:27;;;;;;;106.07;61.03;;;;;;;;;;5096368;28;20031;-56
2022/01/17 07:22:53;;;;;;;114.55;62.90;;;;;;;;;;5096309;28;20136;-55
2022/01/17 07:25:20;;;;;;;119.40;63.13;;;;;;;;;;5096249;28;20028;-56
2022/01/17 07:27:46;;;;;;;120.10;61.60;;;;;;;;;;5096244;28;20040;-56
2022/01/17 07:30:12;;;;;;;110.68;59.00;;;;;;;;;;5095907;28;20089;-64
2022/01/17 07:32:38;;;;;;;119.57;62.95;;;;;;;;;;5096225;28;20035;-68
2022/01/17 07:35:05;;;;;;;121.20;62.22;;;;;;;;;;5095921;28;20477;-63
2022/01/17 07:37:31;;;;;;;130.27;62.80;;;;;;;;;;5096028;28;20024;-68
2022/01/17 07:39:58;;;;;;;117.57;62.58;;;;;;;;;;5095778;28;20516;-70
2022/01/17 07:42:26;;;;;;;136.00;70.03;;;;;;;;;;5095824;28;20377;-66
2022/01/17 07:44:55;;;;;;;118.40;63.80;;;;;;;;;;5095688;28;20020;-57
2022/01/17 07:47:38;;;;;;;145.65;74.35;;;;;;;;;;5095699;28;20034;-57
2022/01/17 07:50:04;;;;;;;192.07;111.60;;;;;;;;;;5095596;28;20066;-65
2022/01/17 07:52:30;;;;;;;103.05;61.65;;;;;;;;;;5095586;28;20020;-59
2022/01/17 07:54:57;;;;;;;117.45;65.15;;;;;;;;;;5095566;28;20028;-59
2022/01/17 07:57:25;;;;;;;120.38;67.57;;;;;;;;;;5095748;28;20059;-55
2022/01/17 07:59:51;;;;;;;135.07;76.78;;;;;;;;;;5095547;28;20073;-66
2022/01/17 08:02:17;;;;;;;121.82;68.13;;;;;;;;;;5095375;28;20019;-71
2022/01/17 08:04:43;;;;;;;114.95;69.30;;;;;;;;;;5095264;28;20034;-74
2022/01/17 08:07:09;;;;;;;122.50;75.38;;;;;;;;;;5095197;28;20024;-71
2022/01/17 08:09:35;;;;;;;103.78;61.00;;;;;;;;;;5094560;28;20099;-74
2022/01/17 08:12:06;;;;;;;87.18;56.35;;;;;;;;;;5095378;28;20028;-67
2022/01/17 08:14:32;;;;;;;82.32;50.17;;;;;;;;;;5095220;28;20020;-56
2022/01/17 08:16:58;;;;;;;100.45;59.28;;;;;;;;;;5095431;28;20016;-58
2022/01/17 08:19:25;;;;;;;85.55;52.35;;;;;;;;;;5095045;28;20085;-58
2022/01/17 08:21:54;;;;;;;103.50;59.20;;;;;;;;;;5095136;28;20024;-56
2022/01/17 08:24:21;;;;;;;93.05;55.20;;;;;;;;;;5095028;28;20024;-57
2022/01/17 08:26:47;;;;;;;89.15;52.55;;;;;;;;;;5094997;28;20028;-60
2022/01/17 08:29:14;;;;;;;97.00;58.78;;;;;;;;;;5094803;28;20044;-74
2022/01/17 08:31:42;;;;;;;95.82;56.47;;;;;;;;;;5094972;28;20432;-70
2022/01/17 08:34:10;;;;;;;89.30;55.15;;;;;;;;;;5094827;28;20066;-72
2022/01/17 08:36:36;;;;;;;80.30;49.67;;;;;;;;;;5094751;28;20473;-68
2022/01/17 08:39:02;;;;;;;81.18;49.75;;;;;;;;;;5094673;28;20477;-71
2022/01/17 08:41:28;;;;;;;75.80;47.83;;;;;;;;;;5095119;28;20377;-72
2022/01/17 08:43:54;;;;;;;70.25;44.33;;;;;;;;;;5094845;28;20041;-71
2022/01/17 08:46:20;;;;;;;75.63;47.35;;;;;;;;;;5094530;28;20152;-54
2022/01/17 08:48:47;;;;;;;69.93;46.00;;;;;;;;;;5094553;28;20033;-60
2022/01/17 08:51:13;;;;;;;75.30;46.13;;;;;;;;;;5094469;28;20027;-60
2022/01/17 08:53:39;;;;;;;77.28;47.92;;;;;;;;;;5094542;28;20509;-57
2022/01/17 08:56:05;;;;;;;81.05;47.42;;;;;;;;;;5094319;28;20484;-73
2022/01/17 08:58:32;;;;;;;82.70;50.60;;;;;;;;;;5094161;28;20035;-56
2022/01/17 09:00:58;;;;;;;87.97;53.08;;;;;;;;;;5094433;28;20024;-69
2022/01/17 09:03:24;;;;;;;81.20;48.78;;;;;;;;;;5094679;28;20381;-73
2022/01/17 09:05:51;;;;;;;87.68;51.22;;;;;;;;;;5094499;28;20024;-73
2022/01/17 09:08:18;;;;;;;78.80;47.35;;;;;;;;;;5094445;28;20020;-69
2022/01/17 09:10:45;;;;;;;82.88;50.33;;;;;;;;;;5094028;28;20020;-71
2022/01/17 09:13:11;;;;;;;74.63;46.10;;;;;;;;;;5094382;28;20533;-74
2022/01/17 09:15:38;;;;;;;78.75;47.40;;;;;;;;;;5093977;28;20024;-73
2022/01/17 09:18:05;;;;;;;77.88;48.72;;;;;;;;;;5094179;28;20086;-70
2022/01/17 09:20:35;;;;;;;82.28;50.08;;;;;;;;;;5093584;28;20028;-63
2022/01/17 09:23:02;;;;;;;80.22;47.97;;;;;;;;;;5093863;28;20082;-68
2022/01/17 09:25:28;;;;;;;84.28;48.88;;;;;;;;;;5093778;28;20540;-73
2022/01/17 09:27:54;;;;;;;81.80;48.00;;;;;;;;;;5093911;28;20036;-73
2022/01/17 09:30:20;;;;;;;79.82;46.83;;;;;;;;;;5093751;28;20474;-66
2022/01/17 09:32:46;;;;;;;71.28;43.53;;;;;;;;;;5093705;28;20016;-69
2022/01/17 09:35:12;;;;;;;75.20;43.65;;;;;;;;;;5093893;28;20024;-69
2022/01/17 09:37:39;;;;;;;78.15;45.60;;;;;;;;;;5093886;28;20095;-72
2022/01/17 09:40:06;;;;;;;68.97;42.72;;;;;;;;;;5093599;28;20177;-68
2022/01/17 09:42:36;;;;;;;65.65;40.83;;;;;;;;;;5093621;28;20024;-67
2022/01/17 09:45:03;;;;;;;66.47;38.45;;;;;;;;;;5093766;28;20466;-69
2022/01/17 09:47:31;;;;;;;66.70;40.33;;;;;;;;;;5093353;28;20035;-70
2022/01/17 09:49:57;;;;;;;62.15;38.55;;;;;;;;;;5093637;28;20106;-75
2022/01/17 09:55:00;;;;;;;72.05;43.13;;;;;;;;;;5093572;28;20496;-71
2022/01/17 09:57:28;;;;;;;81.50;45.92;;;;;;;;;;5093520;28;20028;-65
2022/01/17 09:59:54;;;;;;;86.63;51.08;;;;;;;;;;5093277;28;20036;-67
2022/01/17 10:02:20;;;;;;;127.18;76.47;;;;;;;;;;5093450;28;20091;-68
2022/01/17 10:04:47;;;;;;;108.47;67.57;;;;;;;;;;5093455;28;20038;-58
2022/01/17 10:07:13;;;;;;;101.75;60.42;;;;;;;;;;5093252;28;20060;-58
2022/01/17 10:09:43;;;;;;;103.10;57.00;;;;;;;;;;5093227;28;20043;-62
2022/01/17 10:12:12;;;;;;;88.85;48.72;;;;;;;;;;5093182;28;20024;-62
2022/01/17 10:14:42;;;;;;;80.07;48.03;;;;;;;;;;5093619;28;20024;-56
2022/01/17 10:17:18;;;;;;;71.55;44.50;;;;;;;;;;5093086;28;20074;-54
2022/01/17 10:19:45;;;;;;;63.88;39.33;;;;;;;;;;5093390;28;20086;-63
2022/01/17 10:22:20;;;;;;;68.18;42.28;;;;;;;;;;5093233;28;20394;-65
2022/01/17 10:25:04;;;;;;;93.70;58.47;;;;;;;;;;5093127;28;20111;-69
2022/01/17 10:35:34;;;;;;;70.05;40.03;;;;;;;;;;5097232;28;20035;-60
2022/01/17 10:38:12;;;;;;;65.55;39.33;;;;;;;;;;5097479;28;20145;-58
2022/01/17 10:40:38;;;;;;;102.60;57.20;;;;;;;;;;5096975;28;20039;-54
2022/01/17 10:43:06;;;;;;;78.47;44.63;;;;;;;;;;5095930;28;20016;-59
2022/01/17 10:45:37;;;;;;;67.28;40.08;;;;;;;;;;5096889;28;20020;-60
2022/01/17 10:48:04;;;;;;;71.28;41.42;;;;;;;;;;5096877;28;20051;-59
2022/01/17 10:50:41;;;;;;;72.63;41.63;;;;;;;;;;5096947;28;20020;-65
2022/01/17 10:53:09;;;;;;;74.03;43.70;;;;;;;;;;5096757;28;20016;-67
2022/01/17 10:55:39;;;;;;;72.15;41.58;;;;;;;;;;5096700;28;20091;-63
2022/01/17 10:58:10;;;;;;;77.35;44.90;;;;;;;;;;5096448;28;20020;-68
2022/01/17 11:00:38;;;;;;;73.65;42.72;;;;;;;;;;5096575;28;20028;-64
2022/01/17 11:03:05;;;;;;;84.07;48.17;;;;;;;;;;5096482;28;20420;-64
2022/01/17 11:05:32;;;;;;;72.82;41.42;;;;;;;;;;5096629;28;20020;-56
2022/01/17 11:08:01;;;;;;;60.40;35.53;;;;;;;;;;5096499;28;20026;-57
2022/01/17 11:10:28;;;;;;;68.63;39.92;;;;;;;;;;5096456;28;20020;-58
2022/01/17 11:12:56;;;;;;;72.55;39.80;;;;;;;;;;5096456;28;20069;-56
2022/01/17 11:15:23;;;;;;;101.05;55.03;;;;;;;;;;5096600;28;20099;-58
2022/01/17 11:17:51;;;;;;;100.50;51.03;;;;;;;;;;5096339;28;20381;-55
2022/01/17 11:20:19;;;;;;;79.78;43.30;;;;;;;;;;5096460;28;20035;-67
2022/01/17 11:22:46;;;;;;;85.72;44.90;;;;;;;;;;5096214;28;20031;-64
2022/01/17 11:25:16;;;;;;;66.05;39.22;;;;;;;;;;5096103;28;20024;-61
2022/01/17 11:27:42;;;;;;;62.10;38.08;;;;;;;;;;5096377;28;20039;-71
2022/01/17 11:30:09;;;;;;;129.10;65.72;;;;;;;;;;5096044;28;20028;-74
2022/01/17 11:32:35;;;;;;;91.85;51.30;;;;;;;;;;5095855;28;20054;-69
2022/01/17 11:35:02;;;;;;;99.93;54.63;;;;;;;;;;5096196;28;20027;-72
2022/01/17 11:37:32;;;;;;;70.03;37.70;;;;;;;;;;5094567;28;20016;-66
2022/01/17 11:39:58;;;;;;;105.70;54.38;;;;;;;;;;5096308;28;20032;-66
2022/01/17 11:42:39;;;;;;;68.95;38.10;;;;;;;;;;5095631;28;20023;-62
2022/01/17 11:45:26;;;;;;;57.60;33.85;;;;;;;;;;5095719;28;20111;-56
2022/01/17 11:47:53;;;;;;;52.45;31.50;;;;;;;;;;5095970;28;20036;-58
2022/01/17 11:50:41;;;;;;;51.58;29.98;;;;;;;;;;5095766;28;20024;-65
2022/01/17 11:53:13;;;;;;;49.65;29.20;;;;;;;;;;5095806;28;20043;-61
2022/01/17 11:55:42;;;;;;;45.63;28.38;;;;;;;;;;5095721;28;20156;-61
2022/01/17 11:58:22;;;;;;;51.17;28.48;;;;;;;;;;5095450;28;20438;-64
2022/01/17 12:00:51;;;;;;;47.85;28.45;;;;;;;;;;5094122;28;20486;-63
2022/01/17 12:03:22;;;;;;;46.50;27.60;;;;;;;;;;5095183;28;20037;-63
2022/01/17 12:05:48;;;;;;;48.10;29.10;;;;;;;;;;5095452;28;20059;-56
2022/01/17 12:08:16;;;;;;;52.60;30.20;;;;;;;;;;5095364;28;20385;-55
2022/01/17 12:10:44;;;;;;;63.47;34.63;;;;;;;;;;5095203;28;20048;-61
2022/01/17 12:15:58;;;;;;;67.88;38.45;;;;;;;;;;5095221;28;20569;-59
2022/01/17 12:18:32;;;;;;;54.22;28.10;;;;;;;;;;5095083;28;20353;-57
2022/01/17 12:21:16;;;;;;;47.30;27.25;;;;;;;;;;5095178;28;20029;-63
2022/01/17 12:23:42;;;;;;;41.60;22.88;;;;;;;;;;5094971;28;20020;-61
2022/01/17 12:26:27;;;;;;;40.45;22.75;;;;;;;;;;5094963;28;20104;-65
2022/01/17 12:28:54;;;;;;;45.92;25.27;;;;;;;;;;5094746;28;20535;-61
2022/01/17 12:31:39;;;;;;;51.28;27.30;;;;;;;;;;5094816;28;20095;-60
2022/01/17 12:34:14;;;;;;;45.50;24.63;;;;;;;;;;5094941;28;20024;-63
2022/01/17 12:36:42;;;;;;;55.42;24.92;;;;;;;;;;5094497;28;20051;-61
2022/01/17 12:39:34;;;;;;;38.85;22.08;;;;;;;;;;5093514;28;20032;-63
2022/01/17 12:42:03;;;;;;;42.78;22.92;;;;;;;;;;5092748;28;20072;-62
2022/01/17 12:44:31;;;;;;;38.45;22.15;;;;;;;;;;5094814;28;20055;-62
2022/01/17 12:47:00;;;;;;;46.63;24.80;;;;;;;;;;5094397;28;20032;-64
2022/01/17 12:49:26;;;;;;;32.90;21.33;;;;;;;;;;5094465;28;20065;-65
2022/01/17 12:51:54;;;;;;;39.38;23.80;;;;;;;;;;5092845;28;20026;-63
2022/01/17 12:54:23;;;;;;;44.03;25.42;;;;;;;;;;5093383;28;20489;-66
2022/01/17 12:56:50;;;;;;;41.92;26.63;;;;;;;;;;5094003;28;20058;-64
2022/01/17 12:59:17;;;;;;;50.38;26.98;;;;;;;;;;5091622;28;20047;-61
2022/01/17 13:01:46;;;;;;;54.38;30.42;;;;;;;;;;5093868;28;20077;-63
2022/01/17 13:04:14;;;;;;;52.53;27.58;;;;;;;;;;5093692;28;20031;-60
2022/01/17 13:06:43;;;;;;;55.95;33.22;;;;;;;;;;5093676;28;20023;-60
2022/01/17 13:09:11;;;;;;;68.40;35.88;;;;;;;;;;5093623;28;20032;-60
2022/01/17 13:11:42;;;;;;;73.65;38.03;;;;;;;;;;5093673;28;20016;-61
2022/01/17 13:14:08;;;;;;;68.57;36.55;;;;;;;;;;5093530;28;20016;-63
2022/01/17 13:16:35;;;;;;;61.33;34.67;;;;;;;;;;5093263;28;20035;-62
2022/01/17 13:19:04;;;;;;;74.72;39.67;;;;;;;;;;5093550;28;20035;-63
2022/01/17 13:21:30;;;;;;;57.88;33.38;;;;;;;;;;5093611;28;20028;-63
2022/01/17 13:26:34;;;;;;;61.85;34.78;;;;;;;;;;5093343;28;20031;-63
2022/01/17 13:29:00;;;;;;;51.05;32.20;;;;;;;;;;5090405;28;20062;-63
2022/01/17 13:31:32;;;;;;;56.85;34.17;;;;;;;;;;5092604;28;20095;-62
2022/01/17 13:34:11;;;;;;;62.08;36.35;;;;;;;;;;5092498;28;20027;-61
2022/01/17 13:36:37;;;;;;;59.58;32.97;;;;;;;;;;5091349;28;20024;-63
2022/01/17 13:39:05;;;;;;;62.38;37.03;;;;;;;;;;5092162;28;20354;-63
2022/01/17 13:41:31;;;;;;;58.45;33.78;;;;;;;;;;5092519;28;20069;-63
2022/01/17 13:44:00;;;;;;;58.17;33.53;;;;;;;;;;5092105;28;20020;-61
2022/01/17 13:46:26;;;;;;;58.00;34.00;;;;;;;;;;5092105;28;20008;-63
2022/01/17 13:48:52;;;;;;;48.15;29.63;;;;;;;;;;5092029;28;20042;-63
2022/01/17 13:51:22;;;;;;;50.33;28.95;;;;;;;;;;5092139;28;20020;-67
2022/01/17 13:53:48;;;;;;;70.78;40.05;;;;;;;;;;5092066;28;20031;-67
2022/01/17 13:56:16;;;;;;;46.25;26.95;;;;;;;;;;5092192;28;20067;-66
2022/01/17 13:58:42;;;;;;;48.22;27.25;;;;;;;;;;5091984;28;20082;-65
2022/01/17 14:01:12;;;;;;;41.47;26.02;;;;;;;;;;5092000;28;20016;-65
2022/01/17 14:03:39;;;;;;;70.10;38.08;;;;;;;;;;5092128;28;20420;-62
2022/01/17 14:06:07;;;;;;;49.85;28.17;;;;;;;;;;5090669;28;20385;-62
2022/01/17 14:08:38;;;;;;;53.58;28.75;;;;;;;;;;5091852;28;20550;-57
2022/01/17 14:11:06;;;;;;;;;;;;;;;;;;5093160;28;20062;-61
2022/01/17 14:13:35;;;;;;;43.70;24.33;;;;;;;;;;5092354;28;19911;-65
2022/01/17 14:16:14;;;;;;;42.17;24.65;;;;;;;;;;5092565;28;20012;-63
2022/01/17 14:18:45;;;;;;;48.45;27.77;;;;;;;;;;5090530;28;20473;-54
2022/01/17 14:21:28;;;;;;;52.10;30.55;;;;;;;;;;5092339;28;20117;-60
2022/01/17 14:24:08;;;;;;;53.28;30.27;;;;;;;;;;5092247;28;20032;-59
2022/01/17 14:26:35;;;;;;;53.85;30.42;;;;;;;;;;5092325;28;20060;-61
2022/01/17 14:29:01;;;;;;;68.38;36.88;;;;;;;;;;5050235;28;1209734;-63
2022/01/17 14:31:31;;;;;;;57.33;31.67;;;;;;;;;;5093219;28;20397;-56
2022/01/17 14:34:11;;;;;;;55.95;31.95;;;;;;;;;;5093106;28;20016;-49
2022/01/17 14:36:38;;;;;;;57.88;31.13;;;;;;;;;;5092828;28;20114;-53
2022/01/17 14:39:05;;;;;;;51.58;30.02;;;;;;;;;;5093194;28;20036;-62
2022/01/17 14:41:41;;;;;;;59.08;33.13;;;;;;;;;;5093069;28;20024;-62
2022/01/17 14:44:09;;;;;;;76.20;41.88;;;;;;;;;;5093045;28;20025;-59
2022/01/17 14:46:36;;;;;;;51.65;31.15;;;;;;;;;;5092900;28;20081;-61
2022/01/17 14:49:02;;;;;;;45.35;25.50;;;;;;;;;;5092592;28;20461;-58
2022/01/17 14:51:31;;;;;;;47.70;28.92;;;;;;;;;;5092838;28;20028;-62